sensor_id;sensor_type;location;lat;lon;timestamp;temperature;humidity
78467;SHT31;67759;51.972;5.650;2023-06-14T00:01:48;25.1;29.2
78467;SHT31;67759;51.972;5.650;2023-06-14T00:04:18;25.1;29.4
78467;SHT31;67759;51.972;5.650;2023-06-14T00:06:49;25.1;29.3
78467;SHT31;67759;51.972;5.650;2023-06-14T00:09:18;25.0;29.4
78467;SHT31;67759;51.972;5.650;2023-06-14T00:11:48;25.0;29.6
78467;SHT31;67759;51.972;5.650;2023-06-14T00:14:18;25.0;29.4
78467;SHT31;67759;51.972;5.650;2023-06-14T00:16:47;25.0;29.6
78467;SHT31;67759;51.972;5.650;2023-06-14T00:19:17;25.0;29.7
78467;SHT31;67759;51.972;5.650;2023-06-14T00:21:47;25.1;29.6
78467;SHT31;67759;51.972;5.650;2023-06-14T00:24:17;25.1;29.8
78467;SHT31;67759;51.972;5.650;2023-06-14T00:26:47;25.1;29.4
78467;SHT31;67759;51.972;5.650;2023-06-14T00:29:17;25.0;29.2
78467;SHT31;67759;51.972;5.650;2023-06-14T00:31:46;25.0;29.7
78467;SHT31;67759;51.972;5.650;2023-06-14T00:34:16;25.0;29.6
78467;SHT31;67759;51.972;5.650;2023-06-14T00:36:45;24.9;29.6
78467;SHT31;67759;51.972;5.650;2023-06-14T00:39:17;24.9;29.6
78467;SHT31;67759;51.972;5.650;2023-06-14T00:41:46;24.8;29.7
78467;SHT31;67759;51.972;5.650;2023-06-14T00:44:17;24.7;30.3
78467;SHT31;67759;51.972;5.650;2023-06-14T00:46:47;24.7;30.1
78467;SHT31;67759;51.972;5.650;2023-06-14T00:49:19;24.6;30.1
78467;SHT31;67759;51.972;5.650;2023-06-14T00:51:51;24.6;30.3
78467;SHT31;67759;51.972;5.650;2023-06-14T00:54:22;24.5;30.4
78467;SHT31;67759;51.972;5.650;2023-06-14T00:56:51;24.5;30.3
78467;SHT31;67759;51.972;5.650;2023-06-14T00:59:21;24.5;30.9
78467;SHT31;67759;51.972;5.650;2023-06-14T01:01:51;24.4;30.2
78467;SHT31;67759;51.972;5.650;2023-06-14T01:04:20;24.4;31.0
78467;SHT31;67759;51.972;5.650;2023-06-14T01:06:59;24.3;31.0
78467;SHT31;67759;51.972;5.650;2023-06-14T01:09:43;24.3;30.9
78467;SHT31;67759;51.972;5.650;2023-06-14T01:12:24;24.2;31.2
78467;SHT31;67759;51.972;5.650;2023-06-14T01:14:57;24.2;31.2
78467;SHT31;67759;51.972;5.650;2023-06-14T01:17:28;24.2;31.3
78467;SHT31;67759;51.972;5.650;2023-06-14T01:20:01;24.2;31.3
78467;SHT31;67759;51.972;5.650;2023-06-14T01:22:36;24.2;31.5
78467;SHT31;67759;51.972;5.650;2023-06-14T01:25:09;24.1;31.0
78467;SHT31;67759;51.972;5.650;2023-06-14T01:27:40;24.1;31.5
78467;SHT31;67759;51.972;5.650;2023-06-14T01:30:11;24.1;31.7
78467;SHT31;67759;51.972;5.650;2023-06-14T01:32:41;24.2;31.5
78467;SHT31;67759;51.972;5.650;2023-06-14T01:35:11;24.2;31.1
78467;SHT31;67759;51.972;5.650;2023-06-14T01:37:42;24.3;31.2
78467;SHT31;67759;51.972;5.650;2023-06-14T01:40:16;24.3;31.3
78467;SHT31;67759;51.972;5.650;2023-06-14T01:42:49;24.5;31.0
78467;SHT31;67759;51.972;5.650;2023-06-14T01:45:21;24.5;31.2
78467;SHT31;67759;51.972;5.650;2023-06-14T01:47:52;24.5;31.0
78467;SHT31;67759;51.972;5.650;2023-06-14T01:50:22;24.5;31.1
78467;SHT31;67759;51.972;5.650;2023-06-14T01:52:53;24.5;30.9
78467;SHT31;67759;51.972;5.650;2023-06-14T01:55:23;24.4;31.0
78467;SHT31;67759;51.972;5.650;2023-06-14T01:57:54;24.4;31.0
78467;SHT31;67759;51.972;5.650;2023-06-14T02:00:23;24.3;31.2
78467;SHT31;67759;51.972;5.650;2023-06-14T02:02:53;24.2;31.5
78467;SHT31;67759;51.972;5.650;2023-06-14T02:05:24;24.2;31.4
78467;SHT31;67759;51.972;5.650;2023-06-14T02:07:53;24.1;31.2
78467;SHT31;67759;51.972;5.650;2023-06-14T02:10:23;24.0;31.2
78467;SHT31;67759;51.972;5.650;2023-06-14T02:12:52;23.9;31.7
78467;SHT31;67759;51.972;5.650;2023-06-14T02:15:22;23.9;31.6
78467;SHT31;67759;51.972;5.650;2023-06-14T02:17:57;23.8;31.8
78467;SHT31;67759;51.972;5.650;2023-06-14T02:20:26;23.7;31.9
78467;SHT31;67759;51.972;5.650;2023-06-14T02:22:58;23.7;32.2
78467;SHT31;67759;51.972;5.650;2023-06-14T02:25:28;23.6;32.2
78467;SHT31;67759;51.972;5.650;2023-06-14T02:27:57;23.6;32.5
78467;SHT31;67759;51.972;5.650;2023-06-14T02:30:27;23.5;31.7
78467;SHT31;67759;51.972;5.650;2023-06-14T02:32:56;23.5;32.5
78467;SHT31;67759;51.972;5.650;2023-06-14T02:35:27;23.5;32.3
78467;SHT31;67759;51.972;5.650;2023-06-14T02:37:56;23.4;32.4
78467;SHT31;67759;51.972;5.650;2023-06-14T02:40:26;23.4;32.9
78467;SHT31;67759;51.972;5.650;2023-06-14T02:42:56;23.4;32.4
78467;SHT31;67759;51.972;5.650;2023-06-14T02:45:25;23.4;32.5
78467;SHT31;67759;51.972;5.650;2023-06-14T02:47:55;23.4;32.7
78467;SHT31;67759;51.972;5.650;2023-06-14T02:50:24;23.3;32.9
78467;SHT31;67759;51.972;5.650;2023-06-14T02:52:55;23.3;33.0
78467;SHT31;67759;51.972;5.650;2023-06-14T02:55:25;23.3;32.9
78467;SHT31;67759;51.972;5.650;2023-06-14T02:57:56;23.3;32.7
78467;SHT31;67759;51.972;5.650;2023-06-14T03:00:25;23.3;33.0
78467;SHT31;67759;51.972;5.650;2023-06-14T03:02:57;23.3;31.9
78467;SHT31;67759;51.972;5.650;2023-06-14T03:05:28;23.3;32.5
78467;SHT31;67759;51.972;5.650;2023-06-14T03:07:58;23.3;33.0
78467;SHT31;67759;51.972;5.650;2023-06-14T03:10:27;23.3;33.2
78467;SHT31;67759;51.972;5.650;2023-06-14T03:12:57;23.3;33.1
78467;SHT31;67759;51.972;5.650;2023-06-14T03:15:28;23.3;32.2
78467;SHT31;67759;51.972;5.650;2023-06-14T03:17:58;23.3;33.2
78467;SHT31;67759;51.972;5.650;2023-06-14T03:20:28;23.3;33.4
78467;SHT31;67759;51.972;5.650;2023-06-14T03:23:01;23.2;32.9
78467;SHT31;67759;51.972;5.650;2023-06-14T03:25:32;23.2;32.7
78467;SHT31;67759;51.972;5.650;2023-06-14T03:28:03;23.2;32.9
78467;SHT31;67759;51.972;5.650;2023-06-14T03:30:32;23.2;33.0
78467;SHT31;67759;51.972;5.650;2023-06-14T03:33:02;23.2;32.4
78467;SHT31;67759;51.972;5.650;2023-06-14T03:35:34;23.3;32.3
78467;SHT31;67759;51.972;5.650;2023-06-14T03:38:04;23.3;32.2
78467;SHT31;67759;51.972;5.650;2023-06-14T03:40:34;23.3;32.3
78467;SHT31;67759;51.972;5.650;2023-06-14T03:43:04;23.4;33.6
78467;SHT31;67759;51.972;5.650;2023-06-14T03:45:33;23.5;32.5
78467;SHT31;67759;51.972;5.650;2023-06-14T03:48:03;23.5;32.7
78467;SHT31;67759;51.972;5.650;2023-06-14T03:50:34;23.5;32.8
78467;SHT31;67759;51.972;5.650;2023-06-14T03:53:06;23.5;32.9
78467;SHT31;67759;51.972;5.650;2023-06-14T03:55:36;23.5;33.0
78467;SHT31;67759;51.972;5.650;2023-06-14T03:58:07;23.4;33.1
78467;SHT31;67759;51.972;5.650;2023-06-14T04:00:36;23.4;33.3
78467;SHT31;67759;51.972;5.650;2023-06-14T04:03:07;23.4;33.5
78467;SHT31;67759;51.972;5.650;2023-06-14T04:05:39;23.4;33.5
78467;SHT31;67759;51.972;5.650;2023-06-14T04:08:09;23.3;33.4
78467;SHT31;67759;51.972;5.650;2023-06-14T04:10:42;23.3;33.3
78467;SHT31;67759;51.972;5.650;2023-06-14T04:13:12;23.2;34.0
78467;SHT31;67759;51.972;5.650;2023-06-14T04:15:42;23.2;33.5
78467;SHT31;67759;51.972;5.650;2023-06-14T04:18:13;23.1;34.3
78467;SHT31;67759;51.972;5.650;2023-06-14T04:20:42;23.0;34.3
78467;SHT31;67759;51.972;5.650;2023-06-14T04:23:14;23.0;34.5
78467;SHT31;67759;51.972;5.650;2023-06-14T04:25:45;23.0;34.7
78467;SHT31;67759;51.972;5.650;2023-06-14T04:28:16;22.9;34.8
78467;SHT31;67759;51.972;5.650;2023-06-14T04:30:47;22.9;34.9
78467;SHT31;67759;51.972;5.650;2023-06-14T04:33:16;22.8;35.1
78467;SHT31;67759;51.972;5.650;2023-06-14T04:35:46;22.8;35.0
78467;SHT31;67759;51.972;5.650;2023-06-14T04:38:16;22.8;35.0
78467;SHT31;67759;51.972;5.650;2023-06-14T04:40:46;22.8;34.9
78467;SHT31;67759;51.972;5.650;2023-06-14T04:43:15;22.8;34.8
78467;SHT31;67759;51.972;5.650;2023-06-14T04:45:45;22.9;35.0
78467;SHT31;67759;51.972;5.650;2023-06-14T04:48:15;23.0;34.6
78467;SHT31;67759;51.972;5.650;2023-06-14T04:50:48;23.0;35.0
78467;SHT31;67759;51.972;5.650;2023-06-14T04:53:21;23.0;34.9
78467;SHT31;67759;51.972;5.650;2023-06-14T04:55:50;23.0;34.8
78467;SHT31;67759;51.972;5.650;2023-06-14T04:58:20;23.0;35.0
78467;SHT31;67759;51.972;5.650;2023-06-14T05:00:50;23.0;34.6
78467;SHT31;67759;51.972;5.650;2023-06-14T05:03:20;23.0;35.1
78467;SHT31;67759;51.972;5.650;2023-06-14T05:05:51;23.0;35.0
78467;SHT31;67759;51.972;5.650;2023-06-14T05:08:21;23.0;35.2
78467;SHT31;67759;51.972;5.650;2023-06-14T05:10:55;23.0;35.0
78467;SHT31;67759;51.972;5.650;2023-06-14T05:13:24;23.0;35.1
78467;SHT31;67759;51.972;5.650;2023-06-14T05:15:55;23.0;35.3
78467;SHT31;67759;51.972;5.650;2023-06-14T05:18:25;23.1;35.4
78467;SHT31;67759;51.972;5.650;2023-06-14T05:20:55;23.1;35.3
78467;SHT31;67759;51.972;5.650;2023-06-14T05:23:24;23.2;35.4
78467;SHT31;67759;51.972;5.650;2023-06-14T05:25:54;23.2;35.3
78467;SHT31;67759;51.972;5.650;2023-06-14T05:28:24;23.3;35.0
78467;SHT31;67759;51.972;5.650;2023-06-14T05:30:54;23.3;34.8
78467;SHT31;67759;51.972;5.650;2023-06-14T05:33:27;23.4;35.3
78467;SHT31;67759;51.972;5.650;2023-06-14T05:35:56;23.6;35.0
78467;SHT31;67759;51.972;5.650;2023-06-14T05:38:26;23.9;34.4
78467;SHT31;67759;51.972;5.650;2023-06-14T05:40:57;24.0;34.4
78467;SHT31;67759;51.972;5.650;2023-06-14T05:43:27;24.1;34.1
78467;SHT31;67759;51.972;5.650;2023-06-14T05:45:56;24.2;34.2
78467;SHT31;67759;51.972;5.650;2023-06-14T05:48:26;24.4;33.9
78467;SHT31;67759;51.972;5.650;2023-06-14T05:50:55;24.5;33.5
78467;SHT31;67759;51.972;5.650;2023-06-14T05:53:25;24.5;33.7
78467;SHT31;67759;51.972;5.650;2023-06-14T05:55:57;24.6;33.5
78467;SHT31;67759;51.972;5.650;2023-06-14T05:58:28;24.7;33.3
78467;SHT31;67759;51.972;5.650;2023-06-14T06:00:57;24.8;32.8
78467;SHT31;67759;51.972;5.650;2023-06-14T06:03:26;24.8;32.7
78467;SHT31;67759;51.972;5.650;2023-06-14T06:05:57;24.9;33.0
78467;SHT31;67759;51.972;5.650;2023-06-14T06:08:27;25.0;32.7
78467;SHT31;67759;51.972;5.650;2023-06-14T06:10:57;25.1;32.1
78467;SHT31;67759;51.972;5.650;2023-06-14T06:13:28;25.3;31.8
78467;SHT31;67759;51.972;5.650;2023-06-14T06:15:58;25.4;31.3
78467;SHT31;67759;51.972;5.650;2023-06-14T06:18:27;25.5;31.1
78467;SHT31;67759;51.972;5.650;2023-06-14T06:20:58;25.5;31.0
78467;SHT31;67759;51.972;5.650;2023-06-14T06:23:28;25.6;31.3
78467;SHT31;67759;51.972;5.650;2023-06-14T06:25:57;25.6;31.3
78467;SHT31;67759;51.972;5.650;2023-06-14T06:28:27;25.6;31.1
78467;SHT31;67759;51.972;5.650;2023-06-14T06:30:56;25.7;31.2
78467;SHT31;67759;51.972;5.650;2023-06-14T06:33:25;25.7;31.0
78467;SHT31;67759;51.972;5.650;2023-06-14T06:35:55;25.8;31.0
78467;SHT31;67759;51.972;5.650;2023-06-14T06:38:24;25.8;31.1
78467;SHT31;67759;51.972;5.650;2023-06-14T06:40:54;25.8;31.2
78467;SHT31;67759;51.972;5.650;2023-06-14T06:43:25;25.9;31.6
78467;SHT31;67759;51.972;5.650;2023-06-14T06:45:55;25.9;31.3
78467;SHT31;67759;51.972;5.650;2023-06-14T06:48:24;26.0;30.9
78467;SHT31;67759;51.972;5.650;2023-06-14T06:50:54;26.0;31.1
78467;SHT31;67759;51.972;5.650;2023-06-14T06:53:24;26.1;31.3
78467;SHT31;67759;51.972;5.650;2023-06-14T06:55:53;26.1;31.2
78467;SHT31;67759;51.972;5.650;2023-06-14T06:58:23;26.2;30.6
78467;SHT31;67759;51.972;5.650;2023-06-14T07:00:53;26.3;30.6
78467;SHT31;67759;51.972;5.650;2023-06-14T07:03:25;26.3;30.3
78467;SHT31;67759;51.972;5.650;2023-06-14T07:05:54;26.4;30.7
78467;SHT31;67759;51.972;5.650;2023-06-14T07:08:24;26.4;30.6
78467;SHT31;67759;51.972;5.650;2023-06-14T07:10:56;26.5;30.4
78467;SHT31;67759;51.972;5.650;2023-06-14T07:13:25;26.6;30.6
78467;SHT31;67759;51.972;5.650;2023-06-14T07:15:59;26.6;30.4
78467;SHT31;67759;51.972;5.650;2023-06-14T07:18:31;26.7;30.5
78467;SHT31;67759;51.972;5.650;2023-06-14T07:21:01;26.9;30.2
78467;SHT31;67759;51.972;5.650;2023-06-14T07:23:31;27.0;30.1
78467;SHT31;67759;51.972;5.650;2023-06-14T07:26:00;27.1;30.1
78467;SHT31;67759;51.972;5.650;2023-06-14T07:28:30;27.2;29.6
78467;SHT31;67759;51.972;5.650;2023-06-14T07:31:00;27.3;29.7
78467;SHT31;67759;51.972;5.650;2023-06-14T07:33:32;27.4;30.1
78467;SHT31;67759;51.972;5.650;2023-06-14T07:36:02;27.5;29.6
78467;SHT31;67759;51.972;5.650;2023-06-14T07:38:34;27.7;29.7
78467;SHT31;67759;51.972;5.650;2023-06-14T07:41:04;27.9;28.7
78467;SHT31;67759;51.972;5.650;2023-06-14T07:43:33;28.1;28.4
78467;SHT31;67759;51.972;5.650;2023-06-14T07:46:03;28.3;28.2
78467;SHT31;67759;51.972;5.650;2023-06-14T07:48:36;28.5;27.9
78467;SHT31;67759;51.972;5.650;2023-06-14T07:51:07;28.6;27.6
78467;SHT31;67759;51.972;5.650;2023-06-14T07:53:37;28.7;27.8
78467;SHT31;67759;51.972;5.650;2023-06-14T07:56:08;28.7;27.1
78467;SHT31;67759;51.972;5.650;2023-06-14T07:58:37;28.8;27.4
78467;SHT31;67759;51.972;5.650;2023-06-14T08:01:08;28.9;27.3
78467;SHT31;67759;51.972;5.650;2023-06-14T08:03:37;28.9;26.5
78467;SHT31;67759;51.972;5.650;2023-06-14T08:06:07;28.9;26.8
78467;SHT31;67759;51.972;5.650;2023-06-14T08:08:37;29.0;27.5
78467;SHT31;67759;51.972;5.650;2023-06-14T08:11:06;29.0;26.5
78467;SHT31;67759;51.972;5.650;2023-06-14T08:13:37;29.0;26.3
78467;SHT31;67759;51.972;5.650;2023-06-14T08:16:07;29.0;26.4
78467;SHT31;67759;51.972;5.650;2023-06-14T08:18:36;29.0;26.7
78467;SHT31;67759;51.972;5.650;2023-06-14T08:21:06;29.0;26.5
78467;SHT31;67759;51.972;5.650;2023-06-14T08:23:36;29.1;25.6
78467;SHT31;67759;51.972;5.650;2023-06-14T08:26:08;29.2;25.6
78467;SHT31;67759;51.972;5.650;2023-06-14T08:28:38;29.2;25.6
78467;SHT31;67759;51.972;5.650;2023-06-14T08:31:09;29.2;24.9
78467;SHT31;67759;51.972;5.650;2023-06-14T08:33:39;29.2;24.6
78467;SHT31;67759;51.972;5.650;2023-06-14T08:36:10;29.2;25.2
78467;SHT31;67759;51.972;5.650;2023-06-14T08:38:40;29.3;24.7
78467;SHT31;67759;51.972;5.650;2023-06-14T08:41:11;29.3;24.7
78467;SHT31;67759;51.972;5.650;2023-06-14T08:43:42;29.3;24.9
78467;SHT31;67759;51.972;5.650;2023-06-14T08:46:12;29.3;25.4
78467;SHT31;67759;51.972;5.650;2023-06-14T08:48:44;29.3;26.0
78467;SHT31;67759;51.972;5.650;2023-06-14T08:51:14;29.4;25.0
78467;SHT31;67759;51.972;5.650;2023-06-14T08:53:53;29.4;24.6
78467;SHT31;67759;51.972;5.650;2023-06-14T08:56:26;29.5;24.9
78467;SHT31;67759;51.972;5.650;2023-06-14T08:58:58;29.5;24.9
78467;SHT31;67759;51.972;5.650;2023-06-14T09:01:33;29.6;24.6
78467;SHT31;67759;51.972;5.650;2023-06-14T09:04:03;29.8;24.8
78467;SHT31;67759;51.972;5.650;2023-06-14T09:06:33;30.0;24.2
78467;SHT31;67759;51.972;5.650;2023-06-14T09:09:04;30.1;23.0
78467;SHT31;67759;51.972;5.650;2023-06-14T09:11:35;30.2;22.6
78467;SHT31;67759;51.972;5.650;2023-06-14T09:14:04;30.2;23.0
78467;SHT31;67759;51.972;5.650;2023-06-14T09:16:34;30.3;23.0
78467;SHT31;67759;51.972;5.650;2023-06-14T09:19:04;30.3;23.0
78467;SHT31;67759;51.972;5.650;2023-06-14T09:21:35;30.4;23.9
78467;SHT31;67759;51.972;5.650;2023-06-14T09:24:06;30.5;23.8
78467;SHT31;67759;51.972;5.650;2023-06-14T09:26:46;30.6;22.5
78467;SHT31;67759;51.972;5.650;2023-06-14T09:29:16;30.7;22.6
78467;SHT31;67759;51.972;5.650;2023-06-14T09:31:48;30.8;22.4
78467;SHT31;67759;51.972;5.650;2023-06-14T09:34:18;30.9;22.3
78467;SHT31;67759;51.972;5.650;2023-06-14T09:36:57;31.0;22.8
78467;SHT31;67759;51.972;5.650;2023-06-14T09:39:36;31.3;22.2
78467;SHT31;67759;51.972;5.650;2023-06-14T09:42:19;31.5;22.4
78467;SHT31;67759;51.972;5.650;2023-06-14T09:44:49;31.7;21.7
78467;SHT31;67759;51.972;5.650;2023-06-14T09:47:22;31.8;21.6
78467;SHT31;67759;51.972;5.650;2023-06-14T09:49:59;32.1;21.4
78467;SHT31;67759;51.972;5.650;2023-06-14T09:52:30;32.2;22.0
78467;SHT31;67759;51.972;5.650;2023-06-14T09:55:00;32.3;21.9
78467;SHT31;67759;51.972;5.650;2023-06-14T09:57:34;32.5;21.0
78467;SHT31;67759;51.972;5.650;2023-06-14T10:00:04;32.6;21.1
78467;SHT31;67759;51.972;5.650;2023-06-14T10:02:39;32.7;20.1
78467;SHT31;67759;51.972;5.650;2023-06-14T10:05:15;32.7;20.5
78467;SHT31;67759;51.972;5.650;2023-06-14T10:07:52;32.7;20.7
78467;SHT31;67759;51.972;5.650;2023-06-14T10:10:22;32.7;21.0
78467;SHT31;67759;51.972;5.650;2023-06-14T10:12:52;32.6;20.8
78467;SHT31;67759;51.972;5.650;2023-06-14T10:15:30;32.6;20.4
78467;SHT31;67759;51.972;5.650;2023-06-14T10:18:09;32.6;20.6
78467;SHT31;67759;51.972;5.650;2023-06-14T10:20:51;32.6;20.6
78467;SHT31;67759;51.972;5.650;2023-06-14T10:23:24;32.5;20.7
78467;SHT31;67759;51.972;5.650;2023-06-14T10:25:57;32.5;21.2
78467;SHT31;67759;51.972;5.650;2023-06-14T10:28:27;32.5;20.9
78467;SHT31;67759;51.972;5.650;2023-06-14T10:31:05;32.4;21.4
78467;SHT31;67759;51.972;5.650;2023-06-14T10:33:39;32.4;22.7
78467;SHT31;67759;51.972;5.650;2023-06-14T10:36:26;32.6;22.2
78467;SHT31;67759;51.972;5.650;2023-06-14T10:39:06;32.8;21.5
78467;SHT31;67759;51.972;5.650;2023-06-14T10:41:38;32.9;21.5
78467;SHT31;67759;51.972;5.650;2023-06-14T10:45:13;33.0;21.3
78467;SHT31;67759;51.972;5.650;2023-06-14T10:47:43;33.2;21.4
78467;SHT31;67759;51.972;5.650;2023-06-14T10:50:15;33.3;20.6
78467;SHT31;67759;51.972;5.650;2023-06-14T10:52:47;33.4;20.7
78467;SHT31;67759;51.972;5.650;2023-06-14T10:55:17;33.4;20.6
78467;SHT31;67759;51.972;5.650;2023-06-14T10:57:51;33.5;20.3
78467;SHT31;67759;51.972;5.650;2023-06-14T11:00:25;33.5;20.6
78467;SHT31;67759;51.972;5.650;2023-06-14T11:03:47;33.5;20.6
78467;SHT31;67759;51.972;5.650;2023-06-14T11:06:22;33.5;19.8
78467;SHT31;67759;51.972;5.650;2023-06-14T11:09:57;33.5;20.4
78467;SHT31;67759;51.972;5.650;2023-06-14T11:12:32;33.5;20.4
78467;SHT31;67759;51.972;5.650;2023-06-14T11:15:05;33.5;20.0
78467;SHT31;67759;51.972;5.650;2023-06-14T11:17:37;33.4;19.7
78467;SHT31;67759;51.972;5.650;2023-06-14T11:20:11;33.4;20.1
78467;SHT31;67759;51.972;5.650;2023-06-14T11:22:43;33.5;19.8
78467;SHT31;67759;51.972;5.650;2023-06-14T11:25:13;33.5;20.1
78467;SHT31;67759;51.972;5.650;2023-06-14T11:27:44;33.6;19.4
78467;SHT31;67759;51.972;5.650;2023-06-14T11:30:14;33.7;19.8
78467;SHT31;67759;51.972;5.650;2023-06-14T11:32:46;33.8;19.8
78467;SHT31;67759;51.972;5.650;2023-06-14T11:35:16;33.9;19.4
78467;SHT31;67759;51.972;5.650;2023-06-14T11:37:48;33.9;19.8
78467;SHT31;67759;51.972;5.650;2023-06-14T11:40:22;34.0;19.6
78467;SHT31;67759;51.972;5.650;2023-06-14T11:43:01;34.2;19.9
78467;SHT31;67759;51.972;5.650;2023-06-14T11:45:31;34.3;19.4
78467;SHT31;67759;51.972;5.650;2023-06-14T11:48:01;34.5;19.5
78467;SHT31;67759;51.972;5.650;2023-06-14T11:50:32;34.6;19.5
78467;SHT31;67759;51.972;5.650;2023-06-14T11:53:03;34.8;19.7
78467;SHT31;67759;51.972;5.650;2023-06-14T11:55:37;34.9;18.9
78467;SHT31;67759;51.972;5.650;2023-06-14T11:58:10;35.1;18.2
78467;SHT31;67759;51.972;5.650;2023-06-14T12:00:40;35.1;18.5
78467;SHT31;67759;51.972;5.650;2023-06-14T12:03:09;35.0;19.0
78467;SHT31;67759;51.972;5.650;2023-06-14T12:05:43;34.9;18.8
78467;SHT31;67759;51.972;5.650;2023-06-14T12:08:12;34.9;18.6
78467;SHT31;67759;51.972;5.650;2023-06-14T12:10:44;34.8;18.8
78467;SHT31;67759;51.972;5.650;2023-06-14T12:13:17;34.6;18.8
78467;SHT31;67759;51.972;5.650;2023-06-14T12:15:56;34.5;19.0
78467;SHT31;67759;51.972;5.650;2023-06-14T12:18:33;34.4;19.3
78467;SHT31;67759;51.972;5.650;2023-06-14T12:21:05;34.3;19.9
78467;SHT31;67759;51.972;5.650;2023-06-14T12:23:48;34.3;20.0
78467;SHT31;67759;51.972;5.650;2023-06-14T12:26:20;34.2;19.8
78467;SHT31;67759;51.972;5.650;2023-06-14T12:28:53;34.1;20.1
78467;SHT31;67759;51.972;5.650;2023-06-14T12:31:23;34.0;20.0
78467;SHT31;67759;51.972;5.650;2023-06-14T12:33:54;33.9;20.2
78467;SHT31;67759;51.972;5.650;2023-06-14T12:36:24;33.8;20.5
78467;SHT31;67759;51.972;5.650;2023-06-14T12:38:55;33.7;21.0
78467;SHT31;67759;51.972;5.650;2023-06-14T12:41:25;33.6;20.4
78467;SHT31;67759;51.972;5.650;2023-06-14T12:43:55;33.6;20.5
78467;SHT31;67759;51.972;5.650;2023-06-14T12:46:27;33.5;20.7
78467;SHT31;67759;51.972;5.650;2023-06-14T12:48:56;33.5;20.9
78467;SHT31;67759;51.972;5.650;2023-06-14T12:51:27;33.5;20.0
78467;SHT31;67759;51.972;5.650;2023-06-14T12:53:57;33.5;19.7
78467;SHT31;67759;51.972;5.650;2023-06-14T12:56:27;33.5;20.0
78467;SHT31;67759;51.972;5.650;2023-06-14T12:58:57;33.5;20.1
78467;SHT31;67759;51.972;5.650;2023-06-14T13:01:27;33.5;20.1
78467;SHT31;67759;51.972;5.650;2023-06-14T13:03:58;33.6;19.7
78467;SHT31;67759;51.972;5.650;2023-06-14T13:06:28;33.5;20.9
78467;SHT31;67759;51.972;5.650;2023-06-14T13:08:58;33.5;20.8
78467;SHT31;67759;51.972;5.650;2023-06-14T13:11:29;33.5;21.2
78467;SHT31;67759;51.972;5.650;2023-06-14T13:14:01;33.7;21.0
78467;SHT31;67759;51.972;5.650;2023-06-14T13:16:31;33.8;20.7
78467;SHT31;67759;51.972;5.650;2023-06-14T13:19:00;34.0;20.7
78467;SHT31;67759;51.972;5.650;2023-06-14T13:21:30;34.2;19.8
78467;SHT31;67759;51.972;5.650;2023-06-14T13:23:59;34.4;19.8
78467;SHT31;67759;51.972;5.650;2023-06-14T13:26:29;34.5;20.2
78467;SHT31;67759;51.972;5.650;2023-06-14T13:28:59;34.7;19.6
78467;SHT31;67759;51.972;5.650;2023-06-14T13:31:29;34.8;20.1
78467;SHT31;67759;51.972;5.650;2023-06-14T13:33:59;34.9;19.9
78467;SHT31;67759;51.972;5.650;2023-06-14T13:36:29;34.9;20.2
78467;SHT31;67759;51.972;5.650;2023-06-14T13:38:59;35.0;19.8
78467;SHT31;67759;51.972;5.650;2023-06-14T13:41:30;35.0;20.1
78467;SHT31;67759;51.972;5.650;2023-06-14T13:44:04;35.1;19.6
78467;SHT31;67759;51.972;5.650;2023-06-14T13:46:33;35.1;19.4
78467;SHT31;67759;51.972;5.650;2023-06-14T13:49:03;35.2;19.5
78467;SHT31;67759;51.972;5.650;2023-06-14T13:51:34;35.2;20.0
78467;SHT31;67759;51.972;5.650;2023-06-14T13:54:04;35.3;19.2
78467;SHT31;67759;51.972;5.650;2023-06-14T13:56:34;35.3;18.8
78467;SHT31;67759;51.972;5.650;2023-06-14T13:59:03;35.2;18.8
78467;SHT31;67759;51.972;5.650;2023-06-14T14:01:33;35.2;19.2
78467;SHT31;67759;51.972;5.650;2023-06-14T14:04:02;35.3;18.6
78467;SHT31;67759;51.972;5.650;2023-06-14T14:06:32;35.3;18.6
78467;SHT31;67759;51.972;5.650;2023-06-14T14:09:03;35.3;18.4
78467;SHT31;67759;51.972;5.650;2023-06-14T14:11:32;35.3;18.9
78467;SHT31;67759;51.972;5.650;2023-06-14T14:14:02;35.3;19.3
78467;SHT31;67759;51.972;5.650;2023-06-14T14:16:32;35.3;19.0
78467;SHT31;67759;51.972;5.650;2023-06-14T14:19:03;35.3;18.6
78467;SHT31;67759;51.972;5.650;2023-06-14T14:21:33;35.3;18.8
78467;SHT31;67759;51.972;5.650;2023-06-14T14:24:03;35.3;18.9
78467;SHT31;67759;51.972;5.650;2023-06-14T14:26:33;35.5;18.4
78467;SHT31;67759;51.972;5.650;2023-06-14T14:29:04;35.6;19.0
78467;SHT31;67759;51.972;5.650;2023-06-14T14:31:34;35.6;18.7
78467;SHT31;67759;51.972;5.650;2023-06-14T14:34:04;35.7;18.5
78467;SHT31;67759;51.972;5.650;2023-06-14T14:36:34;35.8;18.6
78467;SHT31;67759;51.972;5.650;2023-06-14T14:39:05;36.0;18.2
78467;SHT31;67759;51.972;5.650;2023-06-14T14:41:34;36.2;18.4
78467;SHT31;67759;51.972;5.650;2023-06-14T14:44:06;36.4;17.8
78467;SHT31;67759;51.972;5.650;2023-06-14T14:46:36;36.7;17.9
78467;SHT31;67759;51.972;5.650;2023-06-14T14:49:06;36.8;17.8
78467;SHT31;67759;51.972;5.650;2023-06-14T14:51:35;37.1;17.6
78467;SHT31;67759;51.972;5.650;2023-06-14T14:54:07;37.2;17.5
78467;SHT31;67759;51.972;5.650;2023-06-14T14:56:38;37.2;17.6
78467;SHT31;67759;51.972;5.650;2023-06-14T14:59:08;37.3;17.1
78467;SHT31;67759;51.972;5.650;2023-06-14T15:01:37;37.3;17.5
78467;SHT31;67759;51.972;5.650;2023-06-14T15:04:07;37.3;17.7
78467;SHT31;67759;51.972;5.650;2023-06-14T15:06:37;37.5;18.0
78467;SHT31;67759;51.972;5.650;2023-06-14T15:09:07;37.7;17.1
78467;SHT31;67759;51.972;5.650;2023-06-14T15:11:37;37.9;17.0
78467;SHT31;67759;51.972;5.650;2023-06-14T15:14:07;38.1;16.3
78467;SHT31;67759;51.972;5.650;2023-06-14T15:16:36;38.2;16.8
78467;SHT31;67759;51.972;5.650;2023-06-14T15:19:06;38.5;15.6
78467;SHT31;67759;51.972;5.650;2023-06-14T15:21:35;38.7;16.0
78467;SHT31;67759;51.972;5.650;2023-06-14T15:24:05;39.0;16.0
78467;SHT31;67759;51.972;5.650;2023-06-14T15:26:35;39.0;15.4
78467;SHT31;67759;51.972;5.650;2023-06-14T15:29:04;39.1;15.5
78467;SHT31;67759;51.972;5.650;2023-06-14T15:31:34;39.2;15.8
78467;SHT31;67759;51.972;5.650;2023-06-14T15:34:03;39.2;15.6
78467;SHT31;67759;51.972;5.650;2023-06-14T15:36:33;39.2;15.8
78467;SHT31;67759;51.972;5.650;2023-06-14T15:39:03;39.2;16.1
78467;SHT31;67759;51.972;5.650;2023-06-14T15:41:32;39.2;16.0
78467;SHT31;67759;51.972;5.650;2023-06-14T15:44:02;39.2;15.9
78467;SHT31;67759;51.972;5.650;2023-06-14T15:46:32;39.3;15.6
78467;SHT31;67759;51.972;5.650;2023-06-14T15:49:01;39.3;15.7
78467;SHT31;67759;51.972;5.650;2023-06-14T15:51:34;39.3;15.7
78467;SHT31;67759;51.972;5.650;2023-06-14T15:54:04;39.4;15.4
78467;SHT31;67759;51.972;5.650;2023-06-14T15:56:34;39.5;15.6
78467;SHT31;67759;51.972;5.650;2023-06-14T15:59:03;39.5;15.5
78467;SHT31;67759;51.972;5.650;2023-06-14T16:01:34;39.5;15.5
78467;SHT31;67759;51.972;5.650;2023-06-14T16:04:04;39.4;15.4
78467;SHT31;67759;51.972;5.650;2023-06-14T16:06:33;39.3;15.7
78467;SHT31;67759;51.972;5.650;2023-06-14T16:09:04;39.3;15.7
78467;SHT31;67759;51.972;5.650;2023-06-14T16:11:33;39.3;15.6
78467;SHT31;67759;51.972;5.650;2023-06-14T16:14:02;39.2;15.7
78467;SHT31;67759;51.972;5.650;2023-06-14T16:16:32;39.3;16.1
78467;SHT31;67759;51.972;5.650;2023-06-14T16:19:02;39.5;15.8
78467;SHT31;67759;51.972;5.650;2023-06-14T16:21:32;39.8;16.1
78467;SHT31;67759;51.972;5.650;2023-06-14T16:24:04;40.1;15.5
78467;SHT31;67759;51.972;5.650;2023-06-14T16:26:37;40.2;15.5
78467;SHT31;67759;51.972;5.650;2023-06-14T16:29:06;40.3;15.7